WXM80 ListenWXM80 Stop

You find our weather info also at:

UK Metoffice

WeatherCloud

Weather Underground

Northeastern Weather Network

AWEKAS

Citizen Weather Observer Program (CWOP)

HAMweather, WeatherForYou, PWS Weather


Weather Underground History page Text

Daily Summary for July 21, 2017 Units:  Metric    English   Both
« Previous Day
Next Day »
Daily Weekly Monthly Yearly Custom
  High: Low: Average:
Temperature: 34.7 °C 23.8 °C 28.8 °C
Dew Point: 25.1 °C 20.2 °C 21.7 °C
Humidity: 86 % 45 % 67 %
Wind Speed: 10.3 km/h 0 km/h 2.1 km/h
Wind Gust: 16.7 km/h - -
Wind:- - West
Pressure: 1011.4 hPa 1008.7 hPa -
Precipitation: 0 mm    
Historical Graphs
 
 
Tabular Data for July 21, 2017
Time Temperature Dew Point Pressure Wind Wind Speed Wind Gust Humidity Rainfall Rate (Hourly)
00:04 26.1 °C 20.6 °C 1009 hPa SW 1.6 km/h 5.6 km/h 72 % 0 mm
00:09 26 °C 20.6 °C 1009.4 hPa SW 0.8 km/h 3.7 km/h 72 % 0 mm
00:14 26 °C 20.6 °C 1009.4 hPa SW 2.4 km/h 9.3 km/h 72 % 0 mm
00:19 25.9 °C 20.5 °C 1009.4 hPa SW 5.8 km/h 9.3 km/h 72 % 0 mm
00:24 25.9 °C 20.5 °C 1009.4 hPa WSW 5.6 km/h 13 km/h 72 % 0 mm
00:29 25.9 °C 20.7 °C 1009.4 hPa WSW 1.3 km/h 3.7 km/h 73 % 0 mm
00:34 25.9 °C 20.7 °C 1009.4 hPa SSW 1.9 km/h 6.4 km/h 73 % 0 mm
00:40 25.9 °C 20.7 °C 1009.4 hPa SW 3.5 km/h 11.1 km/h 73 % 0 mm
00:41 25.9 °C 20.7 °C 1009.4 hPa SW 1.6 km/h 11.3 km/h 73 % 0 mm
00:46 25.8 °C 20.6 °C 1009.4 hPa SW 3.2 km/h 8 km/h 73 % 0 mm
00:51 25.8 °C 20.6 °C 1009.4 hPa Calm   6.4 km/h 73 % 0 mm
00:56 25.8 °C 20.6 °C 1009.4 hPa WSW 1.6 km/h 11.3 km/h 73 % 0 mm
01:01 25.8 °C 20.6 °C 1009.4 hPa SSW 2.3 km/h 7.4 km/h 73 % 0 mm
01:06 25.8 °C 20.8 °C 1009.7 hPa WSW 0.2 km/h 3.7 km/h 74 % 0 mm
01:11 25.8 °C 20.6 °C 1009.7 hPa West 0.3 km/h 5.6 km/h 73 % 0 mm
01:16 25.8 °C 20.8 °C 1009.7 hPa Calm   5.6 km/h 74 % 0 mm
01:21 25.7 °C 20.7 °C 1009.7 hPa WSW 0.2 km/h 8 km/h 74 % 0 mm
01:26 25.7 °C 20.7 °C 1009.7 hPa SW 3.1 km/h 5.6 km/h 74 % 0 mm
01:31 25.7 °C 20.7 °C 1010 hPa West 0.3 km/h 1.9 km/h 74 % 0 mm
01:36 25.7 °C 20.7 °C 1010 hPa West 3.7 km/h 5.6 km/h 74 % 0 mm
01:41 25.7 °C 20.7 °C 1009.7 hPa WNW 1.8 km/h 5.6 km/h 74 % 0 mm
01:46 25.7 °C 20.7 °C 1010 hPa WNW 0.5 km/h 3.7 km/h 74 % 0 mm
01:51 25.7 °C 20.9 °C 1010 hPa WNW 0.3 km/h 1.9 km/h 75 % 0 mm
01:56 25.7 °C 20.9 °C 1009.7 hPa Calm     75 % 0 mm
02:01 25.7 °C 20.9 °C 1009.7 hPa Calm   1.9 km/h 75 % 0 mm
02:06 25.7 °C 20.9 °C 1009.7 hPa WSW 0.2 km/h   75 % 0 mm
02:11 25.7 °C 20.9 °C 1009.7 hPa Calm   3.7 km/h 75 % 0 mm
02:16 25.7 °C 20.9 °C 1009.7 hPa WSW 0.3 km/h 3.2 km/h 75 % 0 mm
02:21 25.7 °C 20.9 °C 1009.7 hPa NW 2.1 km/h 5.6 km/h 75 % 0 mm
02:26 25.7 °C 20.9 °C 1009.7 hPa SSW 0.8 km/h 1.9 km/h 75 % 0 mm
02:31 25.7 °C 21.1 °C 1010 hPa WSW 2.6 km/h 5.6 km/h 76 % 0 mm
02:36 25.6 °C 20.8 °C 1009.7 hPa Calm     75 % 0 mm
02:41 25.6 °C 21 °C 1009.7 hPa Calm     76 % 0 mm
02:46 25.5 °C 20.9 °C 1009.7 hPa WNW 0.2 km/h 1.9 km/h 76 % 0 mm
02:51 25.5 °C 20.9 °C 1009.7 hPa WNW 0.3 km/h 1.6 km/h 76 % 0 mm
02:56 25.4 °C 21.1 °C 1009.7 hPa Calm   1.9 km/h 77 % 0 mm
03:01 25.4 °C 21.1 °C 1009.7 hPa WNW 0.3 km/h 1.6 km/h 77 % 0 mm
03:07 25.3 °C 21 °C 1009.7 hPa Calm     77 % 0 mm
03:12 25.3 °C 20.9 °C 1009.7 hPa WNW 0.2 km/h 1.9 km/h 77 % 0 mm
03:17 25.2 °C 20.9 °C 1009.7 hPa WNW 0.3 km/h 1.9 km/h 77 % 0 mm
03:22 25.2 °C 20.8 °C 1009.7 hPa Calm     77 % 0 mm
03:27 25.1 °C 21 °C 1009.7 hPa Calm   1.6 km/h 78 % 0 mm
03:28 25.1 °C 21 °C 1009.7 hPa Calm   1.9 km/h 78 % 0 mm
03:33 25.1 °C 20.9 °C 1009.7 hPa Calm   1.9 km/h 78 % 0 mm
03:38 24.9 °C 21.1 °C 1009.7 hPa Calm     79 % 0 mm
03:43 24.9 °C 21 °C 1009.7 hPa WNW 0.2 km/h 1.9 km/h 79 % 0 mm
03:48 24.8 °C 20.9 °C 1009.7 hPa Calm     79 % 0 mm
03:53 24.7 °C 20.8 °C 1009.7 hPa WNW 0.3 km/h 1.9 km/h 79 % 0 mm
03:58 24.6 °C 20.7 °C 1009.7 hPa Calm     79 % 0 mm
04:03 24.6 °C 20.9 °C 1009.7 hPa Calm     80 % 0 mm
04:08 24.4 °C 20.8 °C 1009.7 hPa Calm     80 % 0 mm
04:13 24.4 °C 20.9 °C 1009.7 hPa Calm     81 % 0 mm
04:18 24.3 °C 20.9 °C 1009.4 hPa Calm     81 % 0 mm
04:23 24.3 °C 20.8 °C 1009.7 hPa Calm     81 % 0 mm
04:28 24.2 °C 20.9 °C 1009.7 hPa Calm     82 % 0 mm
04:33 24.2 °C 20.9 °C 1009.4 hPa Calm     82 % 0 mm
04:38 24.1 °C 20.8 °C 1009.7 hPa Calm     82 % 0 mm
04:43 24 °C 20.9 °C 1009.4 hPa West 1.3 km/h 3.2 km/h 83 % 0 mm
04:48 23.9 °C 20.9 °C 1009.4 hPa West 1.4 km/h 1.6 km/h 83 % 0 mm
04:53 23.8 °C 20.9 °C 1009.4 hPa West 0.6 km/h 1.9 km/h 84 % 0 mm
04:59 23.8 °C 20.9 °C 1009.4 hPa West 0.5 km/h 3.7 km/h 84 % 0 mm
05:04 23.8 °C 20.9 °C 1009.7 hPa West 0.6 km/h 3.2 km/h 84 % 0 mm
05:09 23.8 °C 21.1 °C 1009.7 hPa West 0.5 km/h 3.7 km/h 85 % 0 mm
05:14 23.8 °C 20.9 °C 1009.7 hPa West 1.8 km/h 3.7 km/h 84 % 0 mm
05:19 23.8 °C 21.1 °C 1009.7 hPa WSW 2.9 km/h 7.4 km/h 85 % 0 mm
05:24 23.8 °C 20.9 °C 1009.7 hPa NW 3.9 km/h 5.6 km/h 84 % 0 mm
05:29 23.8 °C 21.1 °C 1009.7 hPa WNW 3.9 km/h 7.4 km/h 85 % 0 mm
05:34 23.8 °C 21.1 °C 1009.7 hPa WNW 4.2 km/h 7.4 km/h 85 % 0 mm
05:39 23.8 °C 21.1 °C 1010 hPa WNW 0.3 km/h 3.7 km/h 85 % 0 mm
05:44 23.8 °C 21.1 °C 1010 hPa West 0.8 km/h 5.6 km/h 85 % 0 mm
05:49 23.8 °C 21.2 °C 1010 hPa West 1.4 km/h 3.7 km/h 85 % 0 mm
05:54 23.8 °C 21.2 °C 1010 hPa Calm     85 % 0 mm
05:59 23.8 °C 21.2 °C 1010 hPa West 0.8 km/h 1.9 km/h 85 % 0 mm
06:04 23.8 °C 21.2 °C 1010 hPa West 2.1 km/h 3.7 km/h 85 % 0 mm
06:09 23.8 °C 21.2 °C 1010 hPa SW 0.8 km/h 1.9 km/h 85 % 0 mm
06:14 23.8 °C 21.2 °C 1010 hPa SSW 2.1 km/h 3.7 km/h 85 % 0 mm
06:19 23.8 °C 21.3 °C 1010 hPa Calm     86 % 0 mm
06:24 23.8 °C 21.2 °C 1010 hPa SSW 0.2 km/h 1.9 km/h 85 % 0 mm
06:29 23.8 °C 21.3 °C 1010 hPa SSW 1 km/h 5.6 km/h 86 % 0 mm
06:34 23.8 °C 21.3 °C 1010 hPa West 1.3 km/h 5.6 km/h 86 % 0 mm
06:39 23.9 °C 21.4 °C 1010 hPa West 1.9 km/h 3.7 km/h 86 % 0 mm
06:44 24 °C 21.5 °C 1010 hPa Calm   3.7 km/h 86 % 0 mm
06:50 24.1 °C 21.6 °C 1010 hPa SW 0.3 km/h 5.6 km/h 86 % 0 mm
06:55 24.2 °C 21.7 °C 1010.4 hPa SW 1.1 km/h 5.6 km/h 86 % 0 mm
07:00 24.4 °C 21.7 °C 1010.4 hPa Calm     85 % 0 mm
07:05 24.6 °C 21.9 °C 1010.4 hPa Calm   5.6 km/h 85 % 0 mm
07:10 24.8 °C 21.9 °C 1010.4 hPa WNW 0.5 km/h 1.9 km/h 84 % 0 mm
07:15 25 °C 21.9 °C 1010.4 hPa Calm     83 % 0 mm
07:20 25.2 °C 22.1 °C 1010.4 hPa SW 1.1 km/h 3.7 km/h 83 % 0 mm
07:25 25.3 °C 22.1 °C 1010.4 hPa SW 0.5 km/h 3.7 km/h 82 % 0 mm
07:30 25.5 °C 22.2 °C 1010.4 hPa Calm   3.7 km/h 82 % 0 mm
07:35 25.6 °C 22.1 °C 1010.4 hPa SW 0.3 km/h   81 % 0 mm
07:40 25.7 °C 21.9 °C 1010.4 hPa SW 0.5 km/h 5.6 km/h 80 % 0 mm
07:45 25.7 °C 22 °C 1010.4 hPa West 1.6 km/h 5.6 km/h 80 % 0 mm
07:50 25.8 °C 22.1 °C 1010.4 hPa NW 0.5 km/h 7.4 km/h 80 % 0 mm
07:55 25.8 °C 22.1 °C 1010.4 hPa WSW 0.2 km/h 1.9 km/h 80 % 0 mm
08:00 25.8 °C 22.1 °C 1010.7 hPa WSW 2.6 km/h 7.4 km/h 80 % 0 mm
08:05 25.8 °C 21.9 °C 1010.7 hPa WNW 3.2 km/h 9.3 km/h 79 % 0 mm
08:10 25.8 °C 21.9 °C 1010.7 hPa SW 5.5 km/h 8 km/h 79 % 0 mm
08:15 25.8 °C 22.1 °C 1010.7 hPa WNW 4.5 km/h 9.7 km/h 80 % 0 mm
08:20 25.8 °C 22.3 °C 1011.1 hPa NW 1.6 km/h 5.6 km/h 81 % 0 mm
08:25 25.8 °C 22.1 °C 1011.1 hPa WNW 7.7 km/h 11.1 km/h 80 % 0 mm
08:30 25.8 °C 22.1 °C 1011.1 hPa WNW 5.1 km/h 7.4 km/h 80 % 0 mm
08:35 25.8 °C 22.1 °C 1011.1 hPa West 6.3 km/h 14.8 km/h 80 % 0 mm
08:40 25.9 °C 21.9 °C 1011.1 hPa WNW 1.6 km/h 5.6 km/h 79 % 0 mm
08:45 25.9 °C 22 °C 1011.1 hPa WNW 5.5 km/h 11.3 km/h 79 % 0 mm
08:50 26 °C 22.1 °C 1011.1 hPa WNW 1.1 km/h 5.6 km/h 79 % 0 mm
08:56 26.1 °C 21.9 °C 1011.1 hPa West 5.5 km/h 14.8 km/h 78 % 0 mm
09:01 26.2 °C 22 °C 1011.1 hPa West 0.8 km/h 9.3 km/h 78 % 0 mm
09:06 26.2 °C 22 °C 1011.1 hPa NW 4 km/h 13 km/h 78 % 0 mm
09:11 26.3 °C 22.1 °C 1011.1 hPa WNW 3.2 km/h 9.3 km/h 78 % 0 mm
09:16 26.4 °C 22.2 °C 1011.1 hPa WNW 3.9 km/h 11.3 km/h 78 % 0 mm
09:21 26.5 °C 22.3 °C 1011.1 hPa NW 7.4 km/h 13 km/h 78 % 0 mm
09:26 26.6 °C 22.2 °C 1011.1 hPa WNW 8.5 km/h 14.8 km/h 77 % 0 mm
09:31 26.6 °C 22.2 °C 1011.1 hPa WNW 4.7 km/h 8 km/h 77 % 0 mm
09:36 26.7 °C 22.3 °C 1011.1 hPa SSW 2.4 km/h 7.4 km/h 77 % 0 mm
09:41 26.8 °C 22.4 °C 1011.4 hPa WNW 7.1 km/h 13 km/h 77 % 0 mm
09:45 26.9 °C 22.3 °C 1011.4 hPa WNW 6.9 km/h 11.1 km/h 76 % 0 mm
09:50 27.2 °C 22.4 °C 1011.1 hPa WNW 4 km/h 14.8 km/h 75 % 0 mm
09:55 27.5 °C 22.7 °C 1011.1 hPa WNW 5.1 km/h 9.3 km/h 75 % 0 mm
10:00 27.8 °C 23.2 °C 1011.1 hPa West 2.6 km/h 11.1 km/h 76 % 0 mm
10:05 28.2 °C 23.1 °C 1011.1 hPa NW 3.7 km/h 11.1 km/h 74 % 0 mm
10:10 28.6 °C 23 °C 1011.1 hPa NW 4.5 km/h 11.1 km/h 72 % 0 mm
10:15 29.1 °C 23 °C 1011.1 hPa WNW 7.7 km/h 11.1 km/h 70 % 0 mm
10:20 29.5 °C 22.9 °C 1011.1 hPa WNW 7.9 km/h 11.1 km/h 68 % 0 mm
10:25 29.9 °C 23.4 °C 1011.1 hPa NW 3.9 km/h 8 km/h 68 % 0 mm
10:30 30.3 °C 23.2 °C 1011.1 hPa NW 4.2 km/h 7.4 km/h 66 % 0 mm
10:35 30.6 °C 23.3 °C 1011.1 hPa WNW 1.4 km/h 5.6 km/h 65 % 0 mm
10:40 30.8 °C 22.7 °C 1011.1 hPa SW 6.3 km/h 14.8 km/h 62 % 0 mm
10:46 31.1 °C 23.2 °C 1011.1 hPa WSW 4.8 km/h 12.9 km/h 63 % 0 mm
10:50 31.3 °C 23.1 °C 1011.1 hPa WSW 3.2 km/h 9.7 km/h 62 % 0 mm
10:56 31.6 °C 23.6 °C 1011.1 hPa West 1.6 km/h 11.3 km/h 63 % 0 mm
11:01 31.8 °C 23.1 °C 1011.1 hPa West 4.7 km/h 9.3 km/h 60 % 0 mm
11:06 31.9 °C 23.2 °C 1011.1 hPa WNW 1.3 km/h 5.6 km/h 60 % 0 mm
11:11 32.3 °C 25.1 °C 1011.1 hPa WNW 0.2 km/h 1.9 km/h 66 % 0 mm
11:16 32.5 °C 25.1 °C 1011.1 hPa WNW 0.3 km/h 1.9 km/h 65 % 0 mm
11:21 32.6 °C 24.4 °C 1011.1 hPa SW 2.4 km/h 11.1 km/h 62 % 0 mm
11:26 32.8 °C 24.8 °C 1010.7 hPa West 0.3 km/h 4.8 km/h 63 % 0 mm
11:27 32.8 °C 23.2 °C 1010.7 hPa West 1.3 km/h 5.6 km/h 57 % 0 mm
11:32 32.8 °C 24.6 °C 1010.7 hPa WNW 1.1 km/h 3.7 km/h 62 % 0 mm
11:37 32.8 °C 24.3 °C 1010.7 hPa SW 2.9 km/h 6.4 km/h 61 % 0 mm
11:42 32.8 °C 23.5 °C 1010.7 hPa SW 5.6 km/h 9.3 km/h 58 % 0 mm
11:47 32.8 °C 23.5 °C 1010.4 hPa WNW 2.7 km/h 5.6 km/h 58 % 0 mm
11:52 32.9 °C 23.2 °C 1010.7 hPa WSW 3.2 km/h 5.6 km/h 57 % 0 mm
11:57 32.9 °C 23.8 °C 1010.7 hPa SSW 0.2 km/h 3.2 km/h 59 % 0 mm
12:02 32.9 °C 24.4 °C 1010.7 hPa WNW 1.9 km/h 5.6 km/h 61 % 0 mm
12:07 33 °C 24.2 °C 1010.4 hPa WNW 3.1 km/h 5.6 km/h 60 % 0 mm
12:12 33.1 °C 24.8 °C 1010.4 hPa WNW 2.4 km/h 8 km/h 62 % 0 mm
12:17 33.1 °C 24 °C 1010.4 hPa WNW 2.6 km/h 6.4 km/h 59 % 0 mm
12:22 33.2 °C 23.6 °C 1010.4 hPa WNW 0.3 km/h 7.4 km/h 57 % 0 mm
12:27 33.3 °C 23.4 °C 1010.4 hPa WNW 2.3 km/h 3.7 km/h 56 % 0 mm
12:33 33.4 °C 22.9 °C 1010.4 hPa West 2.4 km/h 5.6 km/h 54 % 0 mm
12:38 33.6 °C 24.7 °C 1010.4 hPa NW 0.2 km/h 11.1 km/h 60 % 0 mm
12:43 33.7 °C 23.7 °C 1010.4 hPa NW 3.4 km/h 7.4 km/h 56 % 0 mm
12:48 33.8 °C 23.8 °C 1010.4 hPa WNW 4.5 km/h 6.4 km/h 56 % 0 mm
12:53 33.9 °C 23.9 °C 1010.4 hPa WNW 4.5 km/h 8 km/h 56 % 0 mm
12:58 33.9 °C 22.7 °C 1010.4 hPa WNW 5.5 km/h 9.3 km/h 52 % 0 mm
13:03 33.9 °C 23 °C 1010.4 hPa WNW 5.6 km/h 6.4 km/h 53 % 0 mm
13:08 33.9 °C 22.7 °C 1010.4 hPa NW 5.1 km/h 9.3 km/h 52 % 0 mm
13:13 33.9 °C 23.6 °C 1010 hPa NW 1.9 km/h 9.3 km/h 55 % 0 mm
13:18 34.1 °C 23.1 °C 1010 hPa SW 3.5 km/h 5.6 km/h 53 % 0 mm
13:23 34.2 °C 22.9 °C 1010 hPa South 5 km/h 11.1 km/h 52 % 0 mm
13:28 34.2 °C 23.3 °C 1010 hPa NW 1 km/h 5.6 km/h 53 % 0 mm
13:33 34.3 °C 24.6 °C 1010 hPa NNW 1.4 km/h 1.9 km/h 57 % 0 mm
13:38 34.4 °C 22.4 °C 1010 hPa WNW 5 km/h 9.3 km/h 50 % 0 mm
13:43 34.4 °C 23.5 °C 1010 hPa West 2.7 km/h 7.4 km/h 53 % 0 mm
13:49 34.6 °C 22.3 °C 1010 hPa SSW 0.8 km/h 5.6 km/h 49 % 0 mm
13:54 34.7 °C 23.1 °C 1010 hPa WSW 6.9 km/h 11.3 km/h 51 % 0 mm
13:59 34.7 °C 22.4 °C 1009.7 hPa South 2.7 km/h 9.3 km/h 49 % 0 mm
14:04 34.7 °C 23.4 °C 1009.7 hPa Calm   1.9 km/h 52 % 0 mm
14:09 34.7 °C 23.1 °C 1009.7 hPa SW 2.6 km/h 5.6 km/h 51 % 0 mm
14:14 34.7 °C 23.1 °C 1009.7 hPa NW 5 km/h 7.4 km/h 51 % 0 mm
14:19 34.7 °C 22.4 °C 1009.7 hPa WSW 0.5 km/h 5.6 km/h 49 % 0 mm
14:24 34.6 °C 22.3 °C 1009.7 hPa WSW 5 km/h 9.7 km/h 49 % 0 mm
14:29 34.6 °C 22.7 °C 1009.7 hPa WSW 1 km/h 5.6 km/h 50 % 0 mm
14:34 34.6 °C 22.3 °C 1009.4 hPa SSW 6.4 km/h 8 km/h 49 % 0 mm
14:39 34.6 °C 21.7 °C 1009.4 hPa West 0.2 km/h 5.6 km/h 47 % 0 mm
14:44 34.7 °C 21.7 °C 1009.4 hPa West 8.4 km/h 14.8 km/h 47 % 0 mm
14:46 34.6 °C 22 °C 1009.4 hPa West 10.3 km/h 13 km/h 48 % 0 mm
14:51 34.6 °C 21.9 °C 1009.4 hPa SW 4.8 km/h 7.4 km/h 48 % 0 mm
14:56 34.5 °C 22.2 °C 1009.4 hPa SW 4.2 km/h 6.4 km/h 49 % 0 mm
15:01 34.4 °C 22.1 °C 1009.4 hPa SSW 5.8 km/h 9.3 km/h 49 % 0 mm
15:06 34.3 °C 21.7 °C 1009.4 hPa South 6.8 km/h 12.9 km/h 48 % 0 mm
15:11 34.2 °C 21.6 °C 1009.4 hPa SSW 4.7 km/h 9.3 km/h 48 % 0 mm
15:16 34.1 °C 21.9 °C 1009.4 hPa WSW 2.7 km/h 7.4 km/h 49 % 0 mm
15:21 34.1 °C 21.8 °C 1009.4 hPa SSW 3.4 km/h 7.4 km/h 49 % 0 mm
15:26 34 °C 21.8 °C 1009.4 hPa West 5 km/h 5.6 km/h 49 % 0 mm
15:32 34 °C 21.4 °C 1009.4 hPa WSW 5 km/h 13 km/h 48 % 0 mm
15:37 34 °C 21.4 °C 1009 hPa SSW 3.9 km/h 11.1 km/h 48 % 0 mm
15:42 34.1 °C 21.8 °C 1009.4 hPa WSW 5.3 km/h 7.4 km/h 49 % 0 mm
15:47 34.2 °C 21.9 °C 1009.4 hPa WSW 1.3 km/h 5.6 km/h 49 % 0 mm
15:52 34.3 °C 22.1 °C 1009.4 hPa West 4.3 km/h 7.4 km/h 49 % 0 mm
15:57 34.4 °C 22.1 °C 1009.4 hPa West 2.6 km/h 5.6 km/h 49 % 0 mm
16:02 34.4 °C 22.5 °C 1009.4 hPa Calm   7.4 km/h 50 % 0 mm
16:07 34.5 °C 21.9 °C 1009.4 hPa WSW 4.5 km/h 11.3 km/h 48 % 0 mm
16:12 34.4 °C 21.1 °C 1009.4 hPa WNW 8 km/h 11.1 km/h 46 % 0 mm
16:17 34.2 °C 21.7 °C 1009.4 hPa NW 0.6 km/h 1.9 km/h 48 % 0 mm
16:22 34.3 °C 21.3 °C 1009.4 hPa North 6.6 km/h 11.1 km/h 47 % 0 mm
16:27 34.3 °C 21.4 °C 1009.4 hPa WSW 2.4 km/h 6.4 km/h 47 % 0 mm
16:32 34.4 °C 21.8 °C 1009.4 hPa NW 1.4 km/h 5.6 km/h 48 % 0 mm
16:37 34.4 °C 21.2 °C 1009.4 hPa West 7.4 km/h 14.8 km/h 46 % 0 mm
16:42 34.4 °C 21.1 °C 1009.4 hPa WNW 3.9 km/h 11.1 km/h 46 % 0 mm
16:47 34.3 °C 21.1 °C 1009.4 hPa NW 1.8 km/h 3.7 km/h 46 % 0 mm
16:52 34.2 °C 20.6 °C 1009 hPa WSW 8.4 km/h 14.8 km/h 45 % 0 mm
16:57 34.2 °C 21.2 °C 1009.4 hPa WNW 6.6 km/h 11.3 km/h 47 % 0 mm
17:02 34.1 °C 21.2 °C 1009 hPa WNW 3.7 km/h 16.7 km/h 47 % 0 mm
17:08 34.1 °C 20.8 °C 1009 hPa West 6.4 km/h 9.7 km/h 46 % 0 mm
17:10 34 °C 20.7 °C 1009 hPa WNW 4.8 km/h 9.7 km/h 46 % 0 mm
17:20 33.9 °C 21 °C 1009 hPa West 4.3 km/h 13 km/h 47 % 0 mm
17:31 33.8 °C 21.2 °C 1009 hPa WNW 3.2 km/h 6.4 km/h 48 % 0 mm
17:36 33.6 °C 21.1 °C 1009 hPa WSW 3.2 km/h 12.9 km/h 48 % 0 mm
17:41 33.5 °C 21.3 °C 1009 hPa SSW 4.2 km/h 5.6 km/h 49 % 0 mm
17:46 33.4 °C 21.2 °C 1009 hPa WNW 5.3 km/h 6.4 km/h 49 % 0 mm
17:50 33.3 °C 20.8 °C 1009 hPa West 1 km/h 9.3 km/h 48 % 0 mm
17:51 33.3 °C 20.8 °C 1009 hPa West 1.3 km/h 3.7 km/h 48 % 0 mm
17:56 33.1 °C 20.9 °C 1009 hPa WNW 0.3 km/h 1.9 km/h 49 % 0 mm
18:01 33.1 °C 20.9 °C 1009 hPa NW 1.3 km/h 5.6 km/h 49 % 0 mm
18:06 32.9 °C 20.8 °C 1009 hPa West 2.6 km/h 5.6 km/h 49 % 0 mm
18:11 32.8 °C 20.7 °C 1009 hPa WNW 5.5 km/h 11.1 km/h 49 % 0 mm
18:16 32.6 °C 20.2 °C 1009 hPa West 6.8 km/h 11.1 km/h 48 % 0 mm
18:21 32.4 °C 20.6 °C 1009 hPa West 4.7 km/h 7.4 km/h 50 % 0 mm
18:26 32.2 °C 20.2 °C 1009 hPa West 4 km/h 7.4 km/h 49 % 0 mm
18:31 32.2 °C 20.7 °C 1009 hPa WNW 0.3 km/h 5.6 km/h 51 % 0 mm
18:36 32 °C 20.3 °C 1009 hPa West 0.3 km/h 3.7 km/h 50 % 0 mm
18:41 31.8 °C 20.4 °C 1009 hPa West 2.1 km/h 7.4 km/h 51 % 0 mm
18:47 31.7 °C 20.7 °C 1009 hPa WNW 1 km/h 7.4 km/h 52 % 0 mm
18:52 31.6 °C 20.6 °C 1009 hPa West 1.9 km/h 5.6 km/h 52 % 0 mm
18:57 31.6 °C 20.8 °C 1009 hPa West 6 km/h 13 km/h 53 % 0 mm
19:02 31.6 °C 20.8 °C 1009 hPa West 1.1 km/h 5.6 km/h 53 % 0 mm
19:07 31.5 °C 20.8 °C 1009 hPa SW 3.7 km/h 7.4 km/h 53 % 0 mm
19:12 31.4 °C 20.7 °C 1008.7 hPa WSW 0.3 km/h 1.9 km/h 53 % 0 mm
19:17 31.3 °C 21.5 °C 1009 hPa SSE 0.2 km/h 1.9 km/h 56 % 0 mm
19:22 31.3 °C 21.2 °C 1009 hPa Calm     55 % 0 mm
19:27 31.2 °C 21.3 °C 1009 hPa Calm     56 % 0 mm
19:32 31.1 °C 21.6 °C 1008.7 hPa Calm     57 % 0 mm
19:37 30.9 °C 21.7 °C 1008.7 hPa Calm     58 % 0 mm
19:43 30.7 °C 21.5 °C 1009 hPa Calm   1.9 km/h 58 % 0 mm
19:48 30.6 °C 21.6 °C 1009 hPa Calm     59 % 0 mm
19:53 30.3 °C 21.7 °C 1009 hPa Calm     60 % 0 mm
19:58 30.2 °C 21.8 °C 1009 hPa Calm     61 % 0 mm
20:03 29.9 °C 21.8 °C 1009 hPa Calm     62 % 0 mm
20:08 29.7 °C 21.9 °C 1009 hPa Calm     63 % 0 mm
20:13 29.5 °C 21.7 °C 1008.7 hPa Calm     63 % 0 mm
20:14 29.4 °C 21.7 °C 1008.7 hPa WNW 0.2 km/h 1.9 km/h 63 % 0 mm
20:19 29.2 °C 21.7 °C 1008.7 hPa Calm   1.9 km/h 64 % 0 mm
20:24 29.1 °C 21.6 °C 1008.7 hPa WNW 0.6 km/h 1.9 km/h 64 % 0 mm
20:29 28.9 °C 21.4 °C 1008.7 hPa Calm   1.9 km/h 64 % 0 mm
20:34 28.7 °C 21.2 °C 1008.7 hPa Calm   1.9 km/h 64 % 0 mm
20:39 28.6 °C 21.1 °C 1008.7 hPa West 1.6 km/h 5.6 km/h 64 % 0 mm
20:45 28.4 °C 21 °C 1008.7 hPa SW 0.5 km/h 5.6 km/h 64 % 0 mm
20:49 28.3 °C 20.9 °C 1009 hPa Calm   1.6 km/h 64 % 0 mm
20:55 28.2 °C 20.9 °C 1009 hPa SW 0.2 km/h 1.9 km/h 65 % 0 mm
21:00 28.1 °C 21.2 °C 1009 hPa Calm   1.6 km/h 66 % 0 mm
21:05 28.1 °C 21.1 °C 1009 hPa SW 0.2 km/h 1.9 km/h 66 % 0 mm
21:10 27.9 °C 21.2 °C 1009.4 hPa SW 0.2 km/h 1.9 km/h 67 % 0 mm
21:15 27.8 °C 21.2 °C 1009.4 hPa Calm     67 % 0 mm
21:20 27.8 °C 21.1 °C 1009.4 hPa Calm     67 % 0 mm
21:25 27.7 °C 21 °C 1009.4 hPa Calm     67 % 0 mm
21:30 27.7 °C 21.2 °C 1009.4 hPa Calm     68 % 0 mm
21:35 27.6 °C 21.2 °C 1009.4 hPa Calm     68 % 0 mm
21:40 27.5 °C 21.1 °C 1009.4 hPa Calm     68 % 0 mm
21:45 27.4 °C 21 °C 1009.4 hPa Calm   1.9 km/h 68 % 0 mm
21:50 27.4 °C 20.9 °C 1009.4 hPa Calm     68 % 0 mm
21:56 27.3 °C 20.9 °C 1009.4 hPa Calm   1.6 km/h 68 % 0 mm
22:01 27.3 °C 21.1 °C 1009.4 hPa Calm     69 % 0 mm
22:06 27.2 °C 21.1 °C 1009.4 hPa Calm     69 % 0 mm
22:11 27.2 °C 21 °C 1009.4 hPa Calm     69 % 0 mm
22:16 27.1 °C 21.2 °C 1009.4 hPa Calm     70 % 0 mm
22:21 27.1 °C 21.1 °C 1009.7 hPa Calm     70 % 0 mm
22:26 27 °C 21.1 °C 1009.7 hPa Calm     70 % 0 mm
22:31 26.9 °C 21.2 °C 1009.4 hPa Calm     71 % 0 mm
22:36 26.9 °C 21.4 °C 1009.4 hPa Calm     72 % 0 mm
22:41 26.9 °C 21.6 °C 1009.4 hPa Calm     73 % 0 mm
22:46 26.8 °C 21.3 °C 1009.4 hPa Calm     72 % 0 mm
22:51 26.8 °C 21.3 °C 1009.4 hPa Calm     72 % 0 mm
22:57 26.8 °C 21.6 °C 1009.4 hPa Calm     73 % 0 mm
23:02 26.7 °C 21.7 °C 1009.7 hPa Calm     74 % 0 mm
23:07 26.7 °C 21.7 °C 1009.4 hPa Calm     74 % 0 mm
23:12 26.6 °C 21.6 °C 1009.4 hPa Calm     74 % 0 mm
23:17 26.6 °C 21.8 °C 1009.7 hPa Calm   1.9 km/h 75 % 0 mm
23:22 26.5 °C 21.5 °C 1009.4 hPa Calm     74 % 0 mm
23:27 26.4 °C 21.7 °C 1009.4 hPa Calm   1.9 km/h 75 % 0 mm
23:32 26.4 °C 21.9 °C 1009.4 hPa Calm   1.6 km/h 76 % 0 mm
23:37 26.4 °C 21.8 °C 1009.7 hPa SW 0.2 km/h 1.9 km/h 76 % 0 mm
23:42 26.3 °C 22 °C 1009.4 hPa SW 0.8 km/h 3.2 km/h 77 % 0 mm
23:47 26.3 °C 22.1 °C 1009.7 hPa SSE 1.9 km/h 4.8 km/h 78 % 0 mm
23:52 26.3 °C 22.1 °C 1009.7 hPa South 0.5 km/h 1.9 km/h 78 % 0 mm
23:57 26.2 °C 22.3 °C 1009.4 hPa South 0.2 km/h 1.9 km/h 79 % 0 mm
Crab Meadow Weather
Compliments of Weather Underground - 3 mb

Script developed by  Jim McMurry - jmcmurry@mwt.net Adapted for the template by  Wim van der Kuil - Leuven-Template.eu

Astronomy: February 1865 is the only month recorded in history not to have a full moon.